Terminal Aerodrome Forecast
Issued by NWS

Home | Current Version | Previous Version | Text Only | Print | Product List | Glossary On
Versions: 1 2 3 4 5 6 7 8 9 10 11 12 13 14 15 16 17
000
FTUS44 KTSA 251725
TAFBVO
TAF
KBVO 251725Z 2518/2618 28009G14KT P6SM OVC022
     FM260000 30006KT P6SM OVC025
     FM260600 VRB03KT P6SM SCT025
      TEMPO 2610/2614 3SM BR=

USA.gov is the U.S. government's official web portal to all federal, state and local government web resources and services.